AAL2020 KPHX-KSAN
Flight info
| Callsign | AAL2020 |
|---|---|
| Flight time | 0h 54m |
| Altitude | 32000 |
| Route | FYRBD1 MOHAK J2 HOGGZ LUCKI1 |
| Aircraft | B738/M-SDE2E3FGHIRWXY/LB1 |
Departure
| Time | 2026-05-04 00:55 |
|---|---|
| Airport | Phoenix Sky Harbor International Airport (KPHX) |
Arrival
| Time | 2026-05-04 01:49 |
|---|---|
| Airport | San Diego International Airport (KSAN) |
| Time | Latitude | Longitude | Altitude | Speed | Heading |
|---|---|---|---|---|---|
| 2026-05-04 00:32 | 33.43752 | -111.99624 | 1123 ft | 0 kts | 270° |
| 2026-05-04 00:45 | 33.43752 | -111.99613 | 1110 ft | 4 kts | 270° |
| 2026-05-04 00:45 | 33.43752 | -111.99588 | 1112 ft | 4 kts | 290° |
| 2026-05-04 00:45 | 33.43738 | -111.99577 | 1117 ft | 4 kts | 360° |
| 2026-05-04 00:46 | 33.43746 | -111.99576 | 1117 ft | 4 kts | 0° |
| 2026-05-04 00:46 | 33.43769 | -111.99576 | 1117 ft | 1 kts | 360° |
| 2026-05-04 00:46 | 33.43770 | -111.99576 | 1117 ft | 1 kts | 360° |
| 2026-05-04 00:49 | 33.43771 | -111.99576 | 1123 ft | 2 kts | 360° |
| 2026-05-04 00:50 | 33.43816 | -111.99576 | 1123 ft | 9 kts | 0° |
| 2026-05-04 00:50 | 33.43877 | -111.99574 | 1116 ft | 9 kts | 13° |
| 2026-05-04 00:50 | 33.43903 | -111.99515 | 1123 ft | 9 kts | 88° |
| 2026-05-04 00:50 | 33.43904 | -111.99413 | 1123 ft | 17 kts | 90° |
| 2026-05-04 00:51 | 33.43904 | -111.99282 | 1123 ft | 11 kts | 89° |
| 2026-05-04 00:51 | 33.43862 | -111.99227 | 1117 ft | 10 kts | 174° |
| 2026-05-04 00:51 | 33.43785 | -111.99226 | 1123 ft | 13 kts | 180° |
| 2026-05-04 00:51 | 33.43676 | -111.99227 | 1118 ft | 17 kts | 180° |
| 2026-05-04 00:52 | 33.43556 | -111.99226 | 1118 ft | 17 kts | 180° |
| 2026-05-04 00:52 | 33.43469 | -111.99227 | 1118 ft | 9 kts | 184° |
| 2026-05-04 00:52 | 33.43409 | -111.99247 | 1116 ft | 9 kts | 184° |
| 2026-05-04 00:52 | 33.43350 | -111.99247 | 1120 ft | 8 kts | 180° |
| 2026-05-04 00:53 | 33.43292 | -111.99247 | 1118 ft | 8 kts | 180° |
| 2026-05-04 00:53 | 33.43235 | -111.99248 | 1115 ft | 8 kts | 182° |
| 2026-05-04 00:53 | 33.43202 | -111.99269 | 1118 ft | 3 kts | 221° |
| 2026-05-04 00:53 | 33.43186 | -111.99286 | 1118 ft | 3 kts | 221° |
| 2026-05-04 00:54 | 33.43158 | -111.99317 | 1116 ft | 9 kts | 221° |
| 2026-05-04 00:54 | 33.43113 | -111.99351 | 1122 ft | 6 kts | 225° |
| 2026-05-04 00:54 | 33.43103 | -111.99418 | 1122 ft | 15 kts | 270° |
| 2026-05-04 00:54 | 33.43103 | -111.99821 | 1123 ft | 83 kts | 270° |
| 2026-05-04 00:55 | 33.43104 | -112.00763 | 1124 ft | 141 kts | 270° |
| 2026-05-04 00:55 | 33.43100 | -112.02106 | 1370 ft | 171 kts | 269° |
| 2026-05-04 00:55 | 33.43083 | -112.03516 | 2139 ft | 169 kts | 266° |
| 2026-05-04 00:55 | 33.43063 | -112.04914 | 2862 ft | 171 kts | 264° |
| 2026-05-04 00:56 | 33.43053 | -112.06444 | 3214 ft | 195 kts | 266° |
| 2026-05-04 00:56 | 33.42878 | -112.08109 | 3473 ft | 208 kts | 247° |
| 2026-05-04 00:56 | 33.42262 | -112.09747 | 3729 ft | 227 kts | 242° |
| 2026-05-04 00:56 | 33.41593 | -112.11579 | 3929 ft | 254 kts | 246° |
| 2026-05-04 00:57 | 33.40938 | -112.13584 | 4526 ft | 261 kts | 246° |
| 2026-05-04 00:57 | 33.40265 | -112.15583 | 5391 ft | 257 kts | 240° |
| 2026-05-04 00:57 | 33.39144 | -112.17257 | 6006 ft | 261 kts | 216° |
| 2026-05-04 00:57 | 33.37474 | -112.18045 | 6726 ft | 263 kts | 184° |
| 2026-05-04 00:58 | 33.35640 | -112.17903 | 7508 ft | 264 kts | 175° |
| 2026-05-04 00:58 | 33.33840 | -112.17407 | 8250 ft | 266 kts | 165° |
| 2026-05-04 00:58 | 33.32088 | -112.16722 | 9090 ft | 265 kts | 165° |
| 2026-05-04 00:58 | 33.30317 | -112.16065 | 9771 ft | 271 kts | 165° |
| 2026-05-04 00:59 | 33.28457 | -112.15395 | 10062 ft | 289 kts | 171° |
| 2026-05-04 00:59 | 33.26408 | -112.15503 | 10207 ft | 308 kts | 198° |
| 2026-05-04 00:59 | 33.24516 | -112.16839 | 10356 ft | 331 kts | 223° |
| 2026-05-04 00:59 | 33.23256 | -112.19222 | 10591 ft | 352 kts | 250° |
| 2026-05-04 01:00 | 33.23070 | -112.22125 | 11239 ft | 359 kts | 273° |
| 2026-05-04 01:00 | 33.23109 | -112.25086 | 11859 ft | 358 kts | 256° |
| 2026-05-04 01:00 | 33.22129 | -112.27774 | 12479 ft | 354 kts | 232° |
| 2026-05-04 01:00 | 33.20536 | -112.30015 | 13159 ft | 355 kts | 227° |
| 2026-05-04 01:01 | 33.18877 | -112.32211 | 13762 ft | 358 kts | 227° |
| 2026-05-04 01:01 | 33.17229 | -112.34467 | 14353 ft | 361 kts | 229° |
| 2026-05-04 01:01 | 33.15621 | -112.36768 | 15012 ft | 361 kts | 231° |
| 2026-05-04 01:01 | 33.14041 | -112.39106 | 15660 ft | 362 kts | 232° |
| 2026-05-04 01:02 | 33.12480 | -112.41472 | 16290 ft | 364 kts | 233° |
| 2026-05-04 01:02 | 33.10922 | -112.43862 | 16891 ft | 366 kts | 233° |
| 2026-05-04 01:02 | 33.09362 | -112.46268 | 17503 ft | 367 kts | 233° |
| 2026-05-04 01:02 | 33.07795 | -112.48689 | 18157 ft | 368 kts | 234° |
| 2026-05-04 01:03 | 33.06231 | -112.51106 | 18662 ft | 370 kts | 234° |
| 2026-05-04 01:03 | 33.04648 | -112.53547 | 19179 ft | 373 kts | 234° |
| 2026-05-04 01:03 | 33.03058 | -112.55999 | 19677 ft | 375 kts | 234° |
| 2026-05-04 01:03 | 33.01454 | -112.58468 | 20179 ft | 378 kts | 234° |
| 2026-05-04 01:04 | 32.99864 | -112.60917 | 20664 ft | 380 kts | 235° |
| 2026-05-04 01:04 | 32.98246 | -112.63407 | 21151 ft | 382 kts | 235° |
| 2026-05-04 01:04 | 32.96641 | -112.65946 | 21619 ft | 383 kts | 239° |
| 2026-05-04 01:04 | 32.95495 | -112.68800 | 22072 ft | 383 kts | 253° |
| 2026-05-04 01:05 | 32.94932 | -112.71894 | 22553 ft | 384 kts | 260° |
| 2026-05-04 01:05 | 32.94515 | -112.75048 | 23003 ft | 386 kts | 261° |
| 2026-05-04 01:05 | 32.94122 | -112.78219 | 23426 ft | 388 kts | 262° |
| 2026-05-04 01:05 | 32.93726 | -112.81403 | 23793 ft | 389 kts | 262° |
| 2026-05-04 01:06 | 32.93319 | -112.84598 | 24204 ft | 389 kts | 261° |
| 2026-05-04 01:06 | 32.93045 | -112.86712 | 24472 ft | 389 kts | 261° |
| 2026-05-04 01:06 | 32.92485 | -112.90934 | 24973 ft | 390 kts | 261° |
| 2026-05-04 01:06 | 32.92056 | -112.94124 | 25333 ft | 391 kts | 261° |
| 2026-05-04 01:07 | 32.91621 | -112.97333 | 25693 ft | 392 kts | 261° |
| 2026-05-04 01:07 | 32.91333 | -112.99450 | 25924 ft | 392 kts | 261° |
| 2026-05-04 01:07 | 32.90894 | -113.02665 | 26300 ft | 392 kts | 261° |
| 2026-05-04 01:07 | 32.90456 | -113.05862 | 26833 ft | 388 kts | 261° |
| 2026-05-04 01:08 | 32.90023 | -113.09012 | 27441 ft | 383 kts | 261° |
| 2026-05-04 01:08 | 32.89596 | -113.12118 | 28033 ft | 379 kts | 261° |
| 2026-05-04 01:08 | 32.89172 | -113.15194 | 28610 ft | 374 kts | 261° |
| 2026-05-04 01:08 | 32.88752 | -113.18237 | 29140 ft | 372 kts | 261° |
| 2026-05-04 01:09 | 32.88333 | -113.21265 | 29668 ft | 369 kts | 261° |
| 2026-05-04 01:09 | 32.87919 | -113.24261 | 30163 ft | 366 kts | 262° |
| 2026-05-04 01:09 | 32.87506 | -113.27231 | 30704 ft | 360 kts | 262° |
| 2026-05-04 01:09 | 32.87093 | -113.30146 | 31259 ft | 355 kts | 261° |
| 2026-05-04 01:10 | 32.86698 | -113.33024 | 31717 ft | 351 kts | 263° |
| 2026-05-04 01:10 | 32.85901 | -113.38782 | 31772 ft | 352 kts | 262° |
| 2026-05-04 01:11 | 32.85095 | -113.44525 | 31767 ft | 351 kts | 262° |
| 2026-05-04 01:11 | 32.84297 | -113.50192 | 31776 ft | 350 kts | 262° |
| 2026-05-04 01:12 | 32.83492 | -113.55893 | 31778 ft | 349 kts | 262° |
| 2026-05-04 01:12 | 32.82685 | -113.61584 | 31778 ft | 348 kts | 262° |
| 2026-05-04 01:13 | 32.81881 | -113.67260 | 31774 ft | 348 kts | 262° |
| 2026-05-04 01:13 | 32.81074 | -113.72945 | 31777 ft | 348 kts | 262° |
| 2026-05-04 01:14 | 32.80267 | -113.78627 | 31784 ft | 348 kts | 262° |
| 2026-05-04 01:14 | 32.79458 | -113.84298 | 31776 ft | 348 kts | 262° |
| 2026-05-04 01:15 | 32.78645 | -113.89969 | 31782 ft | 348 kts | 262° |
| 2026-05-04 01:15 | 32.77831 | -113.95639 | 31781 ft | 348 kts | 262° |
| 2026-05-04 01:16 | 32.77477 | -114.01346 | 31783 ft | 347 kts | 270° |
| 2026-05-04 01:16 | 32.77495 | -114.07078 | 31761 ft | 347 kts | 270° |
| 2026-05-04 01:17 | 32.77703 | -114.12810 | 31771 ft | 347 kts | 271° |
| 2026-05-04 01:17 | 32.77960 | -114.18508 | 31769 ft | 347 kts | 271° |
| 2026-05-04 01:18 | 32.78196 | -114.24248 | 31777 ft | 348 kts | 271° |
| 2026-05-04 01:18 | 32.78419 | -114.29996 | 31801 ft | 348 kts | 271° |
| 2026-05-04 01:19 | 32.78640 | -114.35761 | 31777 ft | 349 kts | 271° |
| 2026-05-04 01:19 | 32.79454 | -114.41449 | 31789 ft | 353 kts | 283° |
| 2026-05-04 01:20 | 32.81028 | -114.46986 | 31772 ft | 353 kts | 283° |
| 2026-05-04 01:20 | 32.82578 | -114.52519 | 31776 ft | 352 kts | 283° |
| 2026-05-04 01:21 | 32.84091 | -114.58014 | 31771 ft | 352 kts | 283° |
| 2026-05-04 01:21 | 32.85606 | -114.63547 | 31764 ft | 351 kts | 283° |
| 2026-05-04 01:22 | 32.87118 | -114.69073 | 31762 ft | 351 kts | 283° |
| 2026-05-04 01:22 | 32.87949 | -114.74700 | 31760 ft | 343 kts | 268° |
| 2026-05-04 01:23 | 32.87818 | -114.80384 | 31759 ft | 343 kts | 268° |
| 2026-05-04 01:23 | 32.87666 | -114.86075 | 31757 ft | 345 kts | 268° |
| 2026-05-04 01:24 | 32.87527 | -114.91753 | 31758 ft | 346 kts | 268° |
| 2026-05-04 01:24 | 32.87392 | -114.97518 | 31754 ft | 347 kts | 268° |
| 2026-05-04 01:25 | 32.87258 | -115.03232 | 31759 ft | 347 kts | 267° |
| 2026-05-04 01:25 | 32.87121 | -115.08977 | 31764 ft | 348 kts | 267° |
| 2026-05-04 01:26 | 32.86981 | -115.14750 | 31290 ft | 351 kts | 267° |
| 2026-05-04 01:26 | 32.86900 | -115.17653 | 30729 ft | 349 kts | 266° |
| 2026-05-04 01:26 | 32.86833 | -115.20507 | 30277 ft | 345 kts | 268° |
| 2026-05-04 01:26 | 32.86772 | -115.23349 | 29818 ft | 342 kts | 266° |
| 2026-05-04 01:27 | 32.86716 | -115.26167 | 29280 ft | 338 kts | 268° |
| 2026-05-04 01:27 | 32.86646 | -115.28960 | 28765 ft | 339 kts | 266° |
| 2026-05-04 01:27 | 32.86559 | -115.31800 | 28286 ft | 348 kts | 267° |
| 2026-05-04 01:27 | 32.86452 | -115.34680 | 27793 ft | 346 kts | 264° |
| 2026-05-04 01:28 | 32.86116 | -115.37495 | 27301 ft | 342 kts | 260° |
| 2026-05-04 01:28 | 32.85685 | -115.40266 | 26816 ft | 339 kts | 259° |
| 2026-05-04 01:28 | 32.85265 | -115.43009 | 26346 ft | 335 kts | 260° |
| 2026-05-04 01:28 | 32.84869 | -115.45725 | 25881 ft | 332 kts | 260° |
| 2026-05-04 01:29 | 32.84486 | -115.48432 | 25425 ft | 331 kts | 260° |
| 2026-05-04 01:29 | 32.84079 | -115.51118 | 24967 ft | 329 kts | 259° |
| 2026-05-04 01:29 | 32.83645 | -115.53791 | 24499 ft | 332 kts | 259° |
| 2026-05-04 01:29 | 32.83195 | -115.56509 | 24031 ft | 337 kts | 259° |
| 2026-05-04 01:30 | 32.82744 | -115.59236 | 23552 ft | 336 kts | 258° |
| 2026-05-04 01:30 | 32.82293 | -115.61964 | 23026 ft | 335 kts | 258° |
| 2026-05-04 01:30 | 32.81852 | -115.64641 | 22597 ft | 332 kts | 258° |
| 2026-05-04 01:30 | 32.81409 | -115.67332 | 22111 ft | 330 kts | 258° |
| 2026-05-04 01:31 | 32.80970 | -115.69997 | 21650 ft | 327 kts | 258° |
| 2026-05-04 01:31 | 32.80535 | -115.72637 | 21200 ft | 324 kts | 258° |
| 2026-05-04 01:31 | 32.80102 | -115.75257 | 20760 ft | 321 kts | 258° |
| 2026-05-04 01:31 | 32.79673 | -115.77856 | 20327 ft | 320 kts | 258° |
| 2026-05-04 01:32 | 32.79244 | -115.80449 | 19905 ft | 320 kts | 258° |
| 2026-05-04 01:32 | 32.78815 | -115.83047 | 19479 ft | 320 kts | 258° |
| 2026-05-04 01:32 | 32.78416 | -115.85646 | 19042 ft | 320 kts | 261° |
| 2026-05-04 01:32 | 32.78173 | -115.88283 | 18612 ft | 322 kts | 263° |
| 2026-05-04 01:33 | 32.77992 | -115.90941 | 18179 ft | 323 kts | 263° |
| 2026-05-04 01:33 | 32.77822 | -115.93588 | 17712 ft | 321 kts | 263° |
| 2026-05-04 01:33 | 32.77647 | -115.96225 | 17241 ft | 319 kts | 263° |
| 2026-05-04 01:33 | 32.77465 | -115.98847 | 16806 ft | 319 kts | 263° |
| 2026-05-04 01:34 | 32.77275 | -116.01477 | 16401 ft | 320 kts | 263° |
| 2026-05-04 01:34 | 32.77080 | -116.04119 | 15982 ft | 322 kts | 263° |
| 2026-05-04 01:34 | 32.76881 | -116.06778 | 15553 ft | 325 kts | 263° |
| 2026-05-04 01:34 | 32.76678 | -116.09461 | 15126 ft | 326 kts | 262° |
| 2026-05-04 01:35 | 32.76475 | -116.12138 | 14695 ft | 324 kts | 262° |
| 2026-05-04 01:35 | 32.76275 | -116.14773 | 14305 ft | 324 kts | 262° |
| 2026-05-04 01:35 | 32.76070 | -116.17442 | 13859 ft | 324 kts | 262° |
| 2026-05-04 01:35 | 32.75865 | -116.20098 | 13410 ft | 323 kts | 262° |
| 2026-05-04 01:36 | 32.75660 | -116.22756 | 12972 ft | 322 kts | 262° |
| 2026-05-04 01:36 | 32.75459 | -116.25383 | 12676 ft | 314 kts | 261° |
| 2026-05-04 01:36 | 32.75263 | -116.27925 | 12592 ft | 303 kts | 262° |
| 2026-05-04 01:36 | 32.75072 | -116.30396 | 12251 ft | 299 kts | 262° |
| 2026-05-04 01:37 | 32.74884 | -116.32843 | 11887 ft | 296 kts | 262° |
| 2026-05-04 01:37 | 32.74695 | -116.35271 | 11529 ft | 294 kts | 262° |
| 2026-05-04 01:37 | 32.74508 | -116.37683 | 11174 ft | 292 kts | 262° |
| 2026-05-04 01:37 | 32.74319 | -116.40084 | 10849 ft | 291 kts | 262° |
| 2026-05-04 01:38 | 32.74132 | -116.42477 | 10479 ft | 290 kts | 262° |
| 2026-05-04 01:38 | 32.73947 | -116.44838 | 10309 ft | 282 kts | 262° |
| 2026-05-04 01:38 | 32.73768 | -116.47130 | 10168 ft | 274 kts | 261° |
| 2026-05-04 01:38 | 32.73594 | -116.49360 | 10035 ft | 267 kts | 261° |
| 2026-05-04 01:39 | 32.73408 | -116.51519 | 9930 ft | 259 kts | 260° |
| 2026-05-04 01:39 | 32.73207 | -116.53608 | 9715 ft | 255 kts | 260° |
| 2026-05-04 01:39 | 32.72998 | -116.55707 | 9359 ft | 255 kts | 260° |
| 2026-05-04 01:39 | 32.72794 | -116.57792 | 9056 ft | 252 kts | 260° |
| 2026-05-04 01:40 | 32.72592 | -116.59861 | 8770 ft | 253 kts | 260° |
| 2026-05-04 01:40 | 32.72389 | -116.61944 | 8453 ft | 253 kts | 260° |
| 2026-05-04 01:40 | 32.72188 | -116.64017 | 8186 ft | 252 kts | 260° |
| 2026-05-04 01:40 | 32.71990 | -116.66082 | 7922 ft | 251 kts | 261° |
| 2026-05-04 01:41 | 32.71828 | -116.68118 | 7658 ft | 250 kts | 261° |
| 2026-05-04 01:41 | 32.71670 | -116.70172 | 7397 ft | 249 kts | 261° |
| 2026-05-04 01:41 | 32.71510 | -116.72222 | 7162 ft | 250 kts | 261° |
| 2026-05-04 01:41 | 32.71348 | -116.74281 | 6923 ft | 251 kts | 261° |
| 2026-05-04 01:42 | 32.71185 | -116.76360 | 6643 ft | 252 kts | 261° |
| 2026-05-04 01:42 | 32.71022 | -116.78428 | 6390 ft | 250 kts | 262° |
| 2026-05-04 01:42 | 32.70861 | -116.80473 | 6133 ft | 249 kts | 262° |
| 2026-05-04 01:42 | 32.70608 | -116.82481 | 5822 ft | 242 kts | 251° |
| 2026-05-04 01:43 | 32.70021 | -116.84315 | 5561 ft | 234 kts | 248° |
| 2026-05-04 01:43 | 32.69444 | -116.86098 | 5301 ft | 229 kts | 249° |
| 2026-05-04 01:43 | 32.68885 | -116.87852 | 5019 ft | 224 kts | 249° |
| 2026-05-04 01:43 | 32.68365 | -116.89557 | 4804 ft | 215 kts | 251° |
| 2026-05-04 01:44 | 32.67875 | -116.91208 | 4558 ft | 211 kts | 251° |
| 2026-05-04 01:44 | 32.67402 | -116.92869 | 4286 ft | 212 kts | 257° |
| 2026-05-04 01:44 | 32.67487 | -116.94574 | 4032 ft | 209 kts | 289° |
| 2026-05-04 01:44 | 32.67932 | -116.96180 | 3807 ft | 202 kts | 284° |
| 2026-05-04 01:45 | 32.68269 | -116.97740 | 3590 ft | 193 kts | 284° |
| 2026-05-04 01:45 | 32.68611 | -116.99250 | 3374 ft | 186 kts | 284° |
| 2026-05-04 01:45 | 32.69301 | -117.02163 | 2921 ft | 182 kts | 284° |
| 2026-05-04 01:46 | 32.69644 | -117.03591 | 2707 ft | 178 kts | 285° |
| 2026-05-04 01:46 | 32.69977 | -117.04980 | 2517 ft | 172 kts | 285° |
| 2026-05-04 01:46 | 32.70303 | -117.06335 | 2278 ft | 171 kts | 285° |
| 2026-05-04 01:46 | 32.70620 | -117.07645 | 2098 ft | 158 kts | 285° |
| 2026-05-04 01:47 | 32.70912 | -117.08849 | 1879 ft | 146 kts | 284° |
| 2026-05-04 01:47 | 32.71187 | -117.09990 | 1658 ft | 144 kts | 285° |
| 2026-05-04 01:47 | 32.71466 | -117.11152 | 1441 ft | 150 kts | 285° |
| 2026-05-04 01:47 | 32.71755 | -117.12349 | 1220 ft | 151 kts | 285° |
| 2026-05-04 01:48 | 32.72045 | -117.13555 | 910 ft | 150 kts | 285° |
| 2026-05-04 01:48 | 32.72334 | -117.14714 | 698 ft | 142 kts | 285° |
| 2026-05-04 01:48 | 32.72512 | -117.15454 | 588 ft | 140 kts | 283° |
| 2026-05-04 01:48 | 32.72775 | -117.16577 | 337 ft | 142 kts | 283° |
| 2026-05-04 01:49 | 32.73052 | -117.17701 | 115 ft | 143 kts | 284° |
| 2026-05-04 01:49 | 32.73319 | -117.18793 | 22 ft | 128 kts | 282° |
| 2026-05-04 01:49 | 32.73503 | -117.19565 | 23 ft | 66 kts | 286° |
| 2026-05-04 01:49 | 32.73591 | -117.19917 | 24 ft | 38 kts | 286° |
| 2026-05-04 01:50 | 32.73638 | -117.20149 | 23 ft | 17 kts | 271° |
| 2026-05-04 01:50 | 32.73594 | -117.20208 | 22 ft | 6 kts | 198° |
| 2026-05-04 01:50 | 32.73556 | -117.20223 | 22 ft | 6 kts | 198° |
| 2026-05-04 01:50 | 32.73519 | -117.20237 | 21 ft | 6 kts | 197° |
| 2026-05-04 01:51 | 32.73483 | -117.20248 | 20 ft | 5 kts | 195° |
| 2026-05-04 01:51 | 32.73449 | -117.20259 | 20 ft | 5 kts | 195° |
| 2026-05-04 01:51 | 32.73413 | -117.20271 | 20 ft | 5 kts | 196° |
| 2026-05-04 01:51 | 32.73377 | -117.20276 | 20 ft | 5 kts | 175° |
| 2026-05-04 01:52 | 32.73341 | -117.20267 | 20 ft | 5 kts | 166° |
| 2026-05-04 01:52 | 32.73313 | -117.20257 | 21 ft | 4 kts | 153° |
| 2026-05-04 01:52 | 32.73297 | -117.20226 | 20 ft | 5 kts | 104° |
| 2026-05-04 01:52 | 32.73295 | -117.20193 | 20 ft | 3 kts | 91° |
| 2026-05-04 01:53 | 32.73295 | -117.20173 | 20 ft | 2 kts | 91° |
| 2026-05-04 01:53 | 32.73295 | -117.20165 | 20 ft | 1 kts | 91° |
| 2026-05-04 01:53 | 32.73295 | -117.20163 | 20 ft | 0 kts | 91° |